»·PEaware :: N786SG KLAX-KSAN

N786SG :: KLAX-KSAN

FLIGHT INFORMATION

Flight Status: Arrived
Operator: Privately registered:
United States
More flights under this callsign
Pilot: Sulaiman S. (16428)
Aircraft: BOMBARDIER BD-100 CHALLENGER 300
(CL30)
More flights by this aircraft type
Origin: KLAX Los Angeles Intl
United States
Destination: KSAN San Diego Intl-Lindbergh
United States
More flights between these airports :: More routes between these airports
Route: +LAXX1 MZB
File this flight plan on PilotEdge
Remarks:
Altitude:
(Current/Filed)
9,000ft
Speed:
(Current/Filed)
450kts
Departed: 11-Oct-17 09:01 PM
Arrived: 11-Oct-17 09:36 PM
Distance/Time
Traveled:
95nm/0:35
Distance/Time
To Go:
Arrived

Flight Plot

Page will automatically refresh every two minutes.

Flight plan parsing failed; only flown route is shown


Map Options




Map Legend


Flown Route
Filed Route
Departure Airport
Arrival Airport
Navaid (VOR, NDB)
Fix

Horizontal Profiles

Position Reports

Time Latitude Longitude Heading Altitude Ground
Speed
11-Oct-17 20:43 33.933429 -118.398276 173 132ft 0kts
11-Oct-17 20:44 33.933429 -118.398276 173 132ft 0kts
11-Oct-17 20:45 33.933429 -118.398276 173 132ft 0kts
11-Oct-17 20:45 33.933429 -118.398276 173 132ft 0kts
11-Oct-17 20:46 33.933429 -118.398276 173 132ft 0kts
11-Oct-17 20:47 33.933429 -118.398276 173 132ft 0kts
11-Oct-17 20:49 33.933429 -118.398276 173 132ft 0kts
11-Oct-17 20:49 33.933429 -118.398276 173 132ft 0kts
11-Oct-17 20:50 33.933429 -118.398276 173 132ft 0kts
11-Oct-17 20:51 33.933429 -118.398276 173 132ft 0kts
11-Oct-17 20:53 33.933429 -118.398276 173 132ft 0kts
11-Oct-17 20:53 33.933429 -118.398276 173 132ft 0kts
11-Oct-17 20:54 33.933429 -118.398276 173 132ft 0kts
11-Oct-17 20:55 33.933429 -118.398276 173 132ft 0kts
11-Oct-17 20:56 33.933429 -118.398276 173 132ft 0kts
11-Oct-17 20:57 33.933429 -118.398276 173 132ft 0kts
11-Oct-17 20:58 33.933608 -118.398876 26 131ft 3kts
11-Oct-17 20:59 33.934727 -118.396521 84 132ft 11kts
11-Oct-17 21:00 33.935529 -118.388303 83 132ft 37kts
11-Oct-17 21:01 33.936403 -118.382741 11 132ft 0kts
11-Oct-17 21:02 33.936403 -118.382741 11 132ft 0kts
11-Oct-17 21:03 33.936403 -118.382741 11 132ft 0kts
11-Oct-17 21:04 33.936403 -118.382741 11 132ft 0kts
11-Oct-17 21:05 33.936778 -118.388172 263 132ft 109kts
11-Oct-17 21:06 33.930876 -118.447036 263 3391ft 182kts
11-Oct-17 21:07 33.920283 -118.495979 235 3530ft 146kts
11-Oct-17 21:08 33.895898 -118.534102 248 7630ft 171kts
11-Oct-17 21:09 33.845524 -118.536794 172 11018ft 249kts
11-Oct-17 21:10 33.764905 -118.517534 172 11013ft 331kts
11-Oct-17 21:11 33.671422 -118.496052 172 11032ft 354kts
11-Oct-17 21:12 33.575729 -118.474137 172 11014ft 348kts
11-Oct-17 21:13 33.482967 -118.452774 172 11002ft 344kts
11-Oct-17 21:14 33.391884 -118.425936 147 10985ft 349kts
11-Oct-17 21:15 33.339957 -118.328191 122 11057ft 353kts
11-Oct-17 21:16 33.291495 -118.225894 122 10994ft 355kts
11-Oct-17 21:17 33.243059 -118.123667 121 10966ft 355kts
11-Oct-17 21:18 33.193256 -118.022486 123 10970ft 354kts
11-Oct-17 21:19 33.142082 -117.922309 123 10966ft 354kts
11-Oct-17 21:20 33.090800 -117.822196 123 10967ft 354kts
11-Oct-17 21:21 33.039308 -117.721940 123 10967ft 354kts
11-Oct-17 21:22 32.987864 -117.622079 123 10334ft 356kts
11-Oct-17 21:23 32.936730 -117.523114 123 8833ft 345kts
11-Oct-17 21:24 32.888236 -117.429714 121 7045ft 323kts
11-Oct-17 21:25 32.844880 -117.346001 122 5225ft 279kts
11-Oct-17 21:26 32.808970 -117.276899 122 4978ft 252kts
11-Oct-17 21:27 32.782698 -117.201660 91 4988ft 260kts
11-Oct-17 21:28 32.780825 -117.117290 91 5001ft 252kts
11-Oct-17 21:29 32.779000 -117.034959 91 4989ft 247kts
11-Oct-17 21:30 32.777299 -116.954306 91 5000ft 244kts
11-Oct-17 21:31 32.775705 -116.874235 91 4999ft 242kts
11-Oct-17 21:32 32.739291 -116.828126 199 5021ft 237kts
11-Oct-17 21:33 32.683326 -116.867948 220 4670ft 241kts
11-Oct-17 21:34 32.660915 -116.926474 295 3998ft 201kts
11-Oct-17 21:35 32.680939 -116.984039 289 3422ft 176kts
11-Oct-17 21:36 32.695673 -117.036543 287 2590ft 164kts
11-Oct-17 21:37 32.708276 -117.085999 286 1821ft 144kts
11-Oct-17 21:38 32.718931 -117.129419 286 1117ft 133kts
11-Oct-17 21:39 32.728835 -117.170158 286 222ft 130kts
11-Oct-17 21:40 32.734520 -117.190886 40 24ft 5kts
11-Oct-17 21:41 32.734614 -117.189273 106 24ft 13kts
11-Oct-17 21:42 32.733474 -117.184559 106 24ft 14kts
11-Oct-17 21:43 32.732350 -117.179915 106 24ft 14kts

Navigation Log

Ident Type
Flight plan parsing failed, navigation log unavailable